Camden, United Kingdom
Current Conditions -  °F | °C
As of 9:50 AM on Friday 19 Dec 2014 (Local Time) from EGLC Reporting Station
Scattered Clouds Scattered Clouds  
Wind Chill: 50°   Ceiling: Unl
Heat Index: 50°   Visibility: 6mi
Dew Point: 41°   Wind: 13mph
Humidity: 71%   Direction: 290°WNW
Pressure: 29.94"   Gusts: NA
Location:  51.54°N, 0.16°W
Report Text: EGLC 190950Z 29011KT 9999 SCT040 10/05 Q1014
Loading
Personal Weather Stations






























Interactive Weather Map New forecast layout! Learn more

10-Day Weather Forecast

Advertisements
Track Severe Weather on mobile